CheckWX is a tool to help pilots better visualize weather data.  It is not intended as a substitute for an official pre-flight weather briefing.

05:20:50 UTC

KSBM METAR
Sheboygan County Memorial Airport
Sheboygan, Wisconsin, USA
Current

25 mins ago

KSBM 200456Z AUTO 00000KT 1 3/4SM BR CLR 16/14 A3004 RMK AO2 T01560144
Observed
Aug-20 @ 04:56 UTC
Visibility
1 3/4 SM
Flight Rules
IFR
Conditions
Mist
Cloud Levels
  • Clear skies
Temperature
16°C / 61°F
Dewpoint
14°C / 57°F
Humidity
88%
Altimeter
30.04" Hg
Pressure
1017.32 hPa
Previous

1 hour ago

KSBM 200353Z AUTO 00000KT 8SM CLR 16/15 A3003 RMK AO2 SLP168 T01610150
Observed
Aug-20 @ 03:53 UTC
Visibility
8 SM
Flight Rules
VFR
Cloud Levels
  • Clear skies
Temperature
16°C / 61°F
Dewpoint
15°C / 59°F
Humidity
94%
Altimeter
30.03" Hg
Pressure
1016.92 hPa
Previous

2 hours ago

KSBM 200253Z AUTO 00000KT 10SM CLR 17/16 A3002 RMK AO2 SLP164 60000 T01720156 53006
Observed
Aug-20 @ 02:53 UTC
Visibility
10 SM
Flight Rules
VFR
Cloud Levels
  • Clear skies
Temperature
17°C / 63°F
Dewpoint
16°C / 61°F
Humidity
94%
Altimeter
30.02" Hg
Pressure
1016.62 hPa